Time;durP1;ratioP1;P1;durP2;ratioP2;P2;SDS_P1;SDS_P2;PMS_P1;PMS_P2;Temp;Humidity;BMP_temperature;BMP_pressure;BME280_temperature;BME280_humidity;BME280_pressure;Samples;Min_cycle;Max_cycle;Signal;HPM_P1;HPM_P2
2022/11/28 00:02:12;;;;;;;21.93;9.33;;;;;;;3.06;100.00;96281.19;5040114;28;20220;-71
2022/11/28 00:04:38;;;;;;;18.77;8.97;;;;;;;3.10;100.00;96287.78;5039528;28;20209;-71
2022/11/28 00:07:05;;;;;;;19.20;8.50;;;;;;;3.18;100.00;96282.72;5040125;28;20209;-70
2022/11/28 00:09:32;;;;;;;31.23;9.00;;;;;;;3.20;100.00;96280.84;5040855;28;20248;-70
2022/11/28 00:11:58;;;;;;;23.17;8.97;;;;;;;3.23;100.00;96278.81;5040338;28;20231;-70
2022/11/28 00:14:26;;;;;;;22.80;9.63;;;;;;;3.35;100.00;96279.53;5038719;28;20204;-70
2022/11/28 00:16:52;;;;;;;22.17;8.60;;;;;;;3.32;100.00;96271.97;5040765;28;20216;-70
2022/11/28 00:19:19;;;;;;;22.83;9.13;;;;;;;3.25;100.00;96274.28;5040352;28;20236;-70
2022/11/28 00:21:45;;;;;;;19.00;8.77;;;;;;;3.25;100.00;96268.25;5039888;28;20279;-70
2022/11/28 00:24:12;;;;;;;22.97;8.70;;;;;;;3.21;100.00;96264.28;5039292;28;20205;-71
2022/11/28 00:26:41;;;;;;;19.50;7.87;;;;;;;3.25;100.00;96252.63;5040021;28;20205;-70
2022/11/28 00:29:08;;;;;;;22.53;9.27;;;;;;;3.25;100.00;96266.47;5039369;28;20840;-70
2022/11/28 00:31:41;;;;;;;20.97;8.50;;;;;;;3.35;100.00;96262.13;5039754;28;20205;-70
2022/11/28 00:34:08;;;;;;;23.17;8.47;;;;;;;3.32;100.00;96254.56;5039197;28;20630;-70
2022/11/28 00:36:35;;;;;;;19.83;8.47;;;;;;;3.14;100.00;96252.72;5039507;28;20223;-70
2022/11/28 00:39:01;;;;;;;20.70;8.83;;;;;;;3.18;100.00;96248.88;5040140;28;20248;-71
2022/11/28 00:41:30;;;;;;;20.77;8.70;;;;;;;3.09;100.00;96254.88;5039519;28;20247;-70
2022/11/28 00:43:57;;;;;;;25.27;9.83;;;;;;;3.09;100.00;96244.47;5038285;28;20201;-71
2022/11/28 00:46:24;;;;;;;20.87;9.03;;;;;;;3.14;100.00;96252.72;5039679;28;20205;-71
2022/11/28 00:48:52;;;;;;;24.10;8.53;;;;;;;3.26;100.00;96246.44;5039937;28;20228;-70
2022/11/28 00:51:21;;;;;;;22.00;9.63;;;;;;;3.07;100.00;96247.22;5039471;28;20232;-70
2022/11/28 00:53:50;;;;;;;19.27;8.70;;;;;;;3.08;100.00;96240.22;5038817;28;20204;-70
2022/11/28 00:56:21;;;;;;;23.43;9.77;;;;;;;3.11;100.00;96234.78;5039414;28;20203;-71
2022/11/28 00:58:48;;;;;;;22.60;8.73;;;;;;;2.96;100.00;96246.47;5039051;28;20241;-70
2022/11/28 01:01:17;;;;;;;22.27;7.83;;;;;;;3.11;100.00;96234.78;5038991;28;20753;-70
2022/11/28 01:03:44;;;;;;;25.43;9.03;;;;;;;3.04;100.00;96236.22;5038862;28;20201;-70
2022/11/28 01:06:13;;;;;;;19.63;8.20;;;;;;;2.92;100.00;96229.50;5039468;28;20202;-71
2022/11/28 01:08:39;;;;;;;18.87;8.53;;;;;;;2.83;100.00;96219.88;5038571;28;20235;-70
2022/11/28 01:11:11;;;;;;;17.30;7.80;;;;;;;2.78;100.00;96214.22;5039407;28;20212;-70
2022/11/28 01:13:37;;;;;;;17.30;7.00;;;;;;;2.85;100.00;96230.97;5038224;28;20310;-71
2022/11/28 01:16:04;;;;;;;18.87;8.00;;;;;;;2.91;100.00;96217.44;5039301;28;20204;-70
2022/11/28 01:18:31;;;;;;;20.87;8.33;;;;;;;2.90;100.00;96226.19;5039502;28;20215;-70
2022/11/28 01:20:57;;;;;;;21.83;8.83;;;;;;;2.88;100.00;96209.06;5038771;28;20212;-70
2022/11/28 01:23:25;;;;;;;20.87;8.67;;;;;;;2.76;100.00;96200.53;5038224;28;20211;-70
2022/11/28 01:25:52;;;;;;;21.70;8.40;;;;;;;2.59;100.00;96229.75;5039639;28;20599;-70
2022/11/28 01:28:18;;;;;;;22.03;8.20;;;;;;;2.76;100.00;96215.31;5038429;28;20210;-70
2022/11/28 01:30:45;;;;;;;24.83;9.20;;;;;;;2.81;100.00;96219.16;5038373;28;20211;-70
2022/11/28 01:33:11;;;;;;;19.83;8.53;;;;;;;2.84;100.00;96200.72;5038534;28;20207;-70
2022/11/28 01:35:38;;;;;;;27.50;8.80;;;;;;;2.77;100.00;96219.56;5039263;28;20215;-70
2022/11/28 01:38:04;;;;;;;21.83;9.23;;;;;;;2.77;100.00;96194.38;5038646;28;20251;-70
2022/11/28 01:40:32;;;;;;;19.97;8.13;;;;;;;2.64;100.00;96183.38;5038557;28;20244;-70
2022/11/28 01:42:59;;;;;;;23.97;8.70;;;;;;;2.53;100.00;96178.25;5037877;28;20260;-70
2022/11/28 01:45:28;;;;;;;23.47;9.63;;;;;;;2.62;100.00;96172.28;5038318;28;20601;-70
2022/11/28 01:48:00;;;;;;;22.70;9.40;;;;;;;2.76;100.00;96218.75;5038538;28;20211;-70
2022/11/28 01:50:28;;;;;;;15.93;6.93;;;;;;;2.72;100.00;96219.94;5038566;28;20246;-70
2022/11/28 01:52:59;;;;;;;26.63;9.60;;;;;;;2.77;100.00;96189.16;5037784;28;20214;-71
2022/11/28 01:55:30;;;;;;;13.87;5.40;;;;;;;2.73;100.00;96231.19;5038126;28;20221;-70
2022/11/28 01:57:58;;;;;;;15.97;7.83;;;;;;;2.83;100.00;96190.44;5038917;28;20208;-70
2022/11/28 02:00:25;;;;;;;18.90;7.47;;;;;;;2.77;100.00;96204.78;5038298;28;20325;-70
2022/11/28 02:02:55;;;;;;;21.17;8.60;;;;;;;2.82;100.00;96173.97;5037297;28;20205;-70
2022/11/28 02:05:23;;;;;;;18.50;7.60;;;;;;;2.59;100.00;96198.53;5038314;28;20211;-71
2022/11/28 02:07:51;;;;;;;19.57;8.00;;;;;;;2.67;100.00;96179.69;5037761;28;20208;-70
2022/11/28 02:10:22;;;;;;;21.77;8.53;;;;;;;2.86;100.00;96164.13;5037644;28;20234;-70
2022/11/28 02:13:19;;;;;;;18.87;7.90;;;;;;;2.94;100.00;96164.28;5037001;28;20209;-70
2022/11/28 02:16:04;;;;;;;21.00;9.20;;;;;;;2.93;100.00;96129.66;5038155;28;20201;-70
2022/11/28 02:18:44;;;;;;;20.67;7.93;;;;;;;2.90;100.00;96132.50;5038160;28;20235;-70
2022/11/28 02:21:28;;;;;;;19.90;7.70;;;;;;;2.95;100.00;96143.34;5037746;28;20207;-71
2022/11/28 02:24:28;;;;;;;23.53;9.33;;;;;;;3.09;100.00;96155.97;5036635;28;20204;-70
2022/11/28 02:27:27;;;;;;;22.20;8.67;;;;;;;3.04;100.00;96140.78;5037791;28;20254;-70
2022/11/28 02:30:11;;;;;;;22.83;8.17;;;;;;;2.82;100.00;96147.97;5032789;28;20633;-70
2022/11/28 02:32:59;;;;;;;22.23;9.43;;;;;;;3.00;100.00;96135.97;5036581;28;20201;-70
2022/11/28 02:35:33;;;;;;;23.87;8.90;;;;;;;2.67;100.00;96123.28;5037439;28;20207;-70
2022/11/28 02:38:08;;;;;;;22.77;9.03;;;;;;;2.73;100.00;96151.34;5038686;28;20300;-71
2022/11/28 02:40:41;;;;;;;23.00;8.63;;;;;;;2.83;100.00;96141.81;5037203;28;20249;-71
2022/11/28 02:43:15;;;;;;;20.50;8.50;;;;;;;2.95;100.00;96158.94;5036600;28;20855;-70
2022/11/28 02:45:49;;;;;;;22.83;9.37;;;;;;;3.00;100.00;96135.97;5037582;28;20648;-70
2022/11/28 02:48:26;;;;;;;22.47;9.43;;;;;;;3.02;100.00;96136.66;5037862;28;20219;-70
2022/11/28 02:50:58;;;;;;;26.70;9.10;;;;;;;3.04;100.00;96142.53;5037025;28;20594;-70
2022/11/28 02:53:28;;;;;;;23.00;9.20;;;;;;;3.11;100.00;96138.44;5036775;28;20208;-70
2022/11/28 02:55:59;;;;;;;19.53;8.03;;;;;;;3.05;100.00;96146.78;5037336;28;20235;-70
2022/11/28 02:58:25;;;;;;;21.80;8.40;;;;;;;3.06;100.00;96161.47;5037448;28;20204;-70
2022/11/28 03:00:53;;;;;;;20.63;8.60;;;;;;;3.12;100.00;96155.72;5037333;28;20262;-70
2022/11/28 03:03:40;;;;;;;19.07;8.13;;;;;;;3.03;100.00;96172.16;5036533;28;20216;-70
2022/11/28 03:06:16;;;;;;;21.57;8.80;;;;;;;3.02;100.00;96162.69;5037532;28;20212;-70
2022/11/28 03:08:57;;;;;;;22.03;9.40;;;;;;;3.01;100.00;96169.66;5037355;28;20224;-70
2022/11/28 03:11:35;;;;;;;18.63;8.07;;;;;;;2.94;100.00;96152.13;5037042;28;20222;-70
2022/11/28 03:14:09;;;;;;;18.50;8.20;;;;;;;3.00;100.00;96146.38;5036215;28;20722;-70
2022/11/28 03:16:44;;;;;;;24.03;9.47;;;;;;;2.86;100.00;96140.72;5037241;28;20204;-70
2022/11/28 03:19:20;;;;;;;17.97;8.37;;;;;;;2.96;100.00;96115.56;5037451;28;20242;-70
2022/11/28 03:21:54;;;;;;;23.93;9.17;;;;;;;2.96;100.00;96118.97;5037063;28;20204;-69
2022/11/28 03:24:27;;;;;;;22.77;8.93;;;;;;;2.94;100.00;96122.66;5035960;28;20208;-70
2022/11/28 03:27:01;;;;;;;22.27;9.47;;;;;;;2.92;100.00;96112.38;5037131;28;20214;-70
2022/11/28 03:29:34;;;;;;;27.90;10.37;;;;;;;3.00;100.00;96107.31;5036786;28;20232;-70
2022/11/28 03:32:05;;;;;;;21.30;8.50;;;;;;;2.93;100.00;96134.00;5036491;28;20209;-69
2022/11/28 03:34:37;;;;;;;29.70;9.97;;;;;;;3.09;100.00;96114.31;5036281;28;20212;-70
2022/11/28 03:37:09;;;;;;;25.13;8.60;;;;;;;3.02;100.00;96114.03;5036863;28;20221;-70
2022/11/28 03:39:39;;;;;;;26.10;8.97;;;;;;;2.97;100.00;96104.19;5037169;28;20435;-71
2022/11/28 03:42:10;;;;;;;27.30;10.47;;;;;;;3.01;100.00;96093.38;5037385;28;20268;-71
2022/11/28 03:44:43;;;;;;;24.33;10.60;;;;;;;2.95;100.00;96082.66;5035529;28;21026;-71
2022/11/28 03:47:10;;;;;;;27.40;9.83;;;;;;;2.79;100.00;96075.38;5036526;28;20759;-70
2022/11/28 03:49:40;;;;;;;26.90;9.63;;;;;;;2.89;100.00;96080.59;5037389;28;20228;-70
2022/11/28 03:52:11;;;;;;;26.47;10.07;;;;;;;2.89;100.00;96075.41;5034138;28;20203;-70
2022/11/28 03:54:46;;;;;;;25.30;9.30;;;;;;;2.92;100.00;96065.56;5035759;28;20748;-70
2022/11/28 03:57:21;;;;;;;23.40;9.23;;;;;;;2.94;100.00;96078.41;5037031;28;20201;-70
2022/11/28 03:59:50;;;;;;;25.37;10.23;;;;;;;2.90;100.00;96077.06;5036845;28;20227;-70
2022/11/28 04:02:23;;;;;;;22.07;8.73;;;;;;;2.99;100.00;96081.44;5036146;28;20207;-71
2022/11/28 04:04:57;;;;;;;22.53;9.47;;;;;;;3.11;100.00;96089.00;5036539;28;20634;-70
2022/11/28 04:07:31;;;;;;;25.70;9.20;;;;;;;3.03;100.00;96096.66;5036770;28;20597;-70
2022/11/28 04:10:03;;;;;;;20.80;8.70;;;;;;;3.17;100.00;96083.22;5036039;28;20224;-70
2022/11/28 04:12:39;;;;;;;22.77;9.13;;;;;;;3.21;100.00;96066.41;5036187;28;20207;-70
2022/11/28 04:15:11;;;;;;;22.40;9.13;;;;;;;3.22;100.00;96052.41;5036611;28;20214;-70
2022/11/28 04:17:44;;;;;;;17.80;7.43;;;;;;;3.21;100.00;96059.41;5036133;28;20215;-71
2022/11/28 04:20:18;;;;;;;24.77;9.33;;;;;;;3.06;100.00;96065.16;5036229;28;20239;-70
2022/11/28 04:22:51;;;;;;;19.23;8.40;;;;;;;3.04;100.00;96087.88;5035665;28;20844;-70
2022/11/28 04:25:22;;;;;;;20.53;8.87;;;;;;;3.16;100.00;96068.59;5036384;28;20220;-70
2022/11/28 04:27:53;;;;;;;23.10;9.13;;;;;;;3.17;100.00;96054.59;5036642;28;20208;-70
2022/11/28 04:30:20;;;;;;;17.17;8.27;;;;;;;3.13;100.00;96055.81;5036396;28;20228;-70
2022/11/28 04:32:50;;;;;;;20.77;8.77;;;;;;;3.18;100.00;96044.06;5035388;28;20212;-70
2022/11/28 04:35:25;;;;;;;23.70;10.13;;;;;;;3.13;100.00;96037.59;5035967;28;20219;-69
2022/11/28 04:37:54;;;;;;;21.10;8.63;;;;;;;3.08;100.00;96024.19;5036303;28;20216;-71
2022/11/28 04:40:23;;;;;;;18.27;8.70;;;;;;;3.12;100.00;96051.59;5035815;28;20243;-71
2022/11/28 04:42:56;;;;;;;18.27;8.27;;;;;;;3.01;100.00;96089.94;5036163;28;20569;-70
2022/11/28 04:45:26;;;;;;;22.03;9.57;;;;;;;3.00;100.00;96083.09;5039046;28;20212;-71
2022/11/28 04:47:53;;;;;;;21.93;9.03;;;;;;;2.95;100.00;96083.47;5039429;28;20208;-70
2022/11/28 04:50:23;;;;;;;20.53;8.17;;;;;;;3.02;100.00;96067.19;5040178;28;20232;-70
2022/11/28 04:52:55;;;;;;;20.40;8.23;;;;;;;2.96;100.00;96085.13;5039868;28;20570;-70
2022/11/28 04:55:29;;;;;;;21.33;8.47;;;;;;;2.90;100.00;96083.06;5039358;28;20207;-71
2022/11/28 04:58:04;;;;;;;22.63;7.87;;;;;;;2.84;100.00;96034.19;5039861;28;20214;-70
2022/11/28 05:00:33;;;;;;;26.97;8.77;;;;;;;2.98;100.00;96015.56;5039742;28;20232;-71
2022/11/28 05:03:00;;;;;;;20.90;8.07;;;;;;;2.97;100.00;96016.53;5038914;28;20213;-71
2022/11/28 05:05:29;;;;;;;19.27;7.57;;;;;;;2.89;100.00;95998.19;5039602;28;20205;-70
2022/11/28 05:07:57;;;;;;;20.73;8.87;;;;;;;2.92;100.00;96002.28;5039864;28;20216;-70
2022/11/28 05:10:24;;;;;;;20.47;7.97;;;;;;;2.70;100.00;96008.56;5039207;28;20228;-70
2022/11/28 05:12:50;;;;;;;20.40;8.87;;;;;;;2.81;100.00;96002.41;5038689;28;20222;-70
2022/11/28 05:15:17;;;;;;;22.67;9.10;;;;;;;2.92;100.00;96044.72;5040027;28;20216;-70
2022/11/28 05:17:44;;;;;;;21.20;7.47;;;;;;;2.93;100.00;96066.34;5039603;28;20204;-71
2022/11/28 05:20:11;;;;;;;17.83;7.43;;;;;;;3.02;100.00;96062.00;5039202;28;20232;-70
2022/11/28 05:22:39;;;;;;;16.07;7.03;;;;;;;2.96;100.00;96082.53;5038595;28;21117;-70
2022/11/28 05:25:07;;;;;;;18.37;8.03;;;;;;;2.92;100.00;96094.16;5039404;28;20212;-69
2022/11/28 05:27:33;;;;;;;27.47;9.13;;;;;;;2.92;100.00;96088.97;5038939;28;20219;-70
2022/11/28 05:30:00;;;;;;;24.27;9.97;;;;;;;2.97;100.00;96068.56;5038982;28;20595;-70
2022/11/28 05:32:29;;;;;;;25.43;10.83;;;;;;;3.18;100.00;96077.91;5038550;28;20211;-70
2022/11/28 05:34:55;;;;;;;25.27;8.90;;;;;;;3.06;100.00;96091.19;5039373;28;20219;-70
2022/11/28 05:37:22;;;;;;;20.07;8.57;;;;;;;3.08;100.00;96068.44;5038540;28;21028;-70
2022/11/28 05:39:49;;;;;;;22.83;10.07;;;;;;;3.09;100.00;96067.47;5038522;28;20227;-71
2022/11/28 05:42:16;;;;;;;23.57;9.30;;;;;;;3.06;100.00;96072.97;5038490;28;20204;-70
2022/11/28 05:44:43;;;;;;;23.73;9.63;;;;;;;3.08;100.00;96076.22;5038772;28;20205;-71
2022/11/28 05:47:09;;;;;;;22.73;9.33;;;;;;;3.12;100.00;96075.03;5038459;28;20688;-70
2022/11/28 05:49:37;;;;;;;19.83;7.93;;;;;;;3.04;100.00;96086.13;5038583;28;20235;-70
2022/11/28 05:52:03;;;;;;;22.77;8.90;;;;;;;3.01;100.00;96105.56;5038686;28;20204;-70
2022/11/28 05:54:30;;;;;;;22.13;9.03;;;;;;;3.08;100.00;96102.25;5037647;28;20199;-70
2022/11/28 05:56:58;;;;;;;27.57;10.47;;;;;;;3.12;100.00;96080.25;5038531;28;20218;-71
2022/11/28 05:59:24;;;;;;;27.67;10.70;;;;;;;3.11;100.00;96076.78;5038663;28;20233;-70
2022/11/28 06:01:51;;;;;;;27.53;10.87;;;;;;;3.17;100.00;96078.03;5037808;28;20225;-70
2022/11/28 06:04:17;;;;;;;24.37;9.67;;;;;;;3.21;100.00;96071.59;5037302;28;20207;-70
2022/11/28 06:06:44;;;;;;;27.40;10.13;;;;;;;3.14;100.00;96060.91;5038510;28;20230;-70
2022/11/28 06:09:10;;;;;;;25.77;9.97;;;;;;;2.97;100.00;96037.34;5038409;28;20228;-70
2022/11/28 06:11:37;;;;;;;27.23;10.10;;;;;;;3.09;100.00;96024.06;5037461;28;20219;-71
2022/11/28 06:14:05;;;;;;;29.03;10.93;;;;;;;3.01;100.00;96043.09;5037689;28;20219;-69
2022/11/28 06:16:31;;;;;;;24.97;9.77;;;;;;;2.97;100.00;96034.75;5039390;28;20206;-70
2022/11/28 06:19:00;;;;;;;26.53;10.23;;;;;;;2.98;100.00;96033.78;5037971;28;21052;-70
2022/11/28 06:21:27;;;;;;;25.73;9.73;;;;;;;3.01;100.00;96036.09;5037107;28;20224;-70
2022/11/28 06:23:54;;;;;;;24.83;10.30;;;;;;;3.06;100.00;96041.72;5037755;28;20207;-70
2022/11/28 06:26:22;;;;;;;26.03;10.00;;;;;;;3.15;100.00;96043.50;5038479;28;20204;-70
2022/11/28 06:28:49;;;;;;;28.57;10.17;;;;;;;3.16;100.00;96052.97;5037375;28;20815;-70
2022/11/28 06:31:19;;;;;;;26.73;9.80;;;;;;;3.03;100.00;96047.22;5037703;28;20200;-70
2022/11/28 06:33:46;;;;;;;27.63;11.33;;;;;;;3.22;100.00;96042.00;5036531;28;20211;-71
2022/11/28 06:36:15;;;;;;;28.10;11.17;;;;;;;3.21;100.00;96035.16;5037069;28;20227;-70
2022/11/28 06:38:41;;;;;;;22.27;10.10;;;;;;;3.25;100.00;96036.53;5037390;28;20229;-71
2022/11/28 06:41:10;;;;;;;28.00;10.37;;;;;;;3.31;100.00;96030.75;5037560;28;20234;-70
2022/11/28 06:43:37;;;;;;;24.60;9.83;;;;;;;3.32;100.00;96029.78;5036567;28;20561;-70
2022/11/28 06:46:04;;;;;;;28.00;10.90;;;;;;;3.40;100.00;96032.53;5037185;28;20212;-69
2022/11/28 06:48:32;;;;;;;25.27;9.03;;;;;;;3.47;100.00;96031.03;5037420;28;21173;-68
2022/11/28 06:51:02;;;;;;;21.87;8.83;;;;;;;3.43;100.00;96032.25;5037428;28;20235;-69
2022/11/28 06:53:28;;;;;;;22.87;10.17;;;;;;;3.34;100.00;96035.69;5036272;28;21230;-67
2022/11/28 06:55:55;;;;;;;27.10;9.57;;;;;;;3.33;100.00;96031.44;5037287;28;20218;-70
2022/11/28 06:58:21;;;;;;;29.67;10.93;;;;;;;3.33;100.00;96031.44;5037583;28;20203;-70
2022/11/28 07:00:48;;;;;;;26.13;10.50;;;;;;;3.38;100.00;96031.84;5036809;28;20221;-70
2022/11/28 07:03:14;;;;;;;28.23;11.23;;;;;;;3.37;100.00;96030.22;5036537;28;20208;-67
2022/11/28 07:05:42;;;;;;;24.57;8.77;;;;;;;3.32;100.00;96029.78;5037093;28;20211;-67
2022/11/28 07:08:09;;;;;;;23.37;9.00;;;;;;;3.36;100.00;96031.16;5036406;28;21040;-68
2022/11/28 07:10:35;;;;;;;25.23;9.37;;;;;;;3.29;100.00;96028.28;5036993;28;20227;-68
2022/11/28 07:13:02;;;;;;;24.63;9.30;;;;;;;3.41;100.00;96036.78;5036716;28;20212;-68
2022/11/28 07:15:28;;;;;;;22.47;8.30;;;;;;;3.42;100.00;96041.03;5036651;28;20858;-70
2022/11/28 07:17:55;;;;;;;24.67;9.13;;;;;;;3.46;100.00;96045.81;5036869;28;20215;-68
2022/11/28 07:20:21;;;;;;;25.83;9.07;;;;;;;3.44;100.00;96046.94;5036411;28;20838;-69
2022/11/28 07:22:49;;;;;;;24.30;9.47;;;;;;;3.63;100.00;96053.75;5036479;28;20209;-69
2022/11/28 07:25:16;;;;;;;18.70;8.37;;;;;;;3.41;100.00;96049.78;5036811;28;20212;-70
2022/11/28 07:27:42;;;;;;;22.77;8.83;;;;;;;3.54;100.00;96050.31;5037042;28;20584;-69
2022/11/28 07:30:10;;;;;;;22.30;8.50;;;;;;;3.64;100.00;96052.78;5036602;28;20231;-69
2022/11/28 07:32:39;;;;;;;19.60;8.37;;;;;;;3.75;100.00;96051.81;5036202;28;20225;-70
2022/11/28 07:35:07;;;;;;;21.03;8.20;;;;;;;3.54;100.00;96053.78;5036827;28;20213;-70
2022/11/28 07:37:34;;;;;;;17.67;8.17;;;;;;;3.63;100.00;96053.75;5036923;28;20217;-69
2022/11/28 07:40:01;;;;;;;19.77;7.50;;;;;;;3.64;100.00;96052.78;5036301;28;20232;-70
2022/11/28 07:42:28;;;;;;;21.90;8.77;;;;;;;3.50;100.00;96062.00;5035850;28;20228;-70
2022/11/28 07:44:54;;;;;;;20.80;8.23;;;;;;;3.52;100.00;96057.47;5036568;28;20209;-70
2022/11/28 07:47:21;;;;;;;23.50;8.53;;;;;;;3.55;100.00;96062.41;5036534;28;20216;-69
2022/11/28 07:49:48;;;;;;;20.73;8.80;;;;;;;3.64;100.00;96049.38;5036096;28;20817;-69
2022/11/28 07:52:14;;;;;;;22.97;8.70;;;;;;;3.64;100.00;96051.97;5034567;28;20251;-70
2022/11/28 07:54:41;;;;;;;20.67;8.20;;;;;;;3.69;100.00;96045.38;5034936;28;20692;-69
2022/11/28 07:57:09;;;;;;;29.77;10.57;;;;;;;3.81;100.00;96046.03;5035803;28;20952;-70
2022/11/28 07:59:35;;;;;;;21.87;8.43;;;;;;;3.75;100.00;96052.63;5035229;28;20732;-70
2022/11/28 08:02:02;;;;;;;19.50;7.80;;;;;;;3.70;100.00;96054.00;5035187;28;20235;-70
2022/11/28 08:04:28;;;;;;;18.23;8.00;;;;;;;3.81;100.00;96052.06;5035507;28;20201;-70
2022/11/28 08:06:55;;;;;;;19.40;8.90;;;;;;;3.88;100.00;96047.94;5035641;28;20211;-69
2022/11/28 08:09:22;;;;;;;18.53;7.53;;;;;;;3.87;100.00;96041.09;5035688;28;20224;-70
2022/11/28 08:11:50;;;;;;;20.93;9.97;;;;;;;3.91;100.00;96037.22;5035473;28;20205;-69
2022/11/28 08:14:18;;;;;;;23.47;10.73;;;;;;;3.98;100.00;96043.50;5035114;28;20292;-69
2022/11/28 08:16:45;;;;;;;19.43;8.00;;;;;;;3.99;100.00;96041.75;5035231;28;20362;-69
2022/11/28 08:19:11;;;;;;;17.83;8.60;;;;;;;3.84;100.00;96040.53;5036335;28;20235;-69
2022/11/28 08:21:38;;;;;;;23.80;9.30;;;;;;;3.88;100.00;96047.09;5039198;28;20227;-70
2022/11/28 08:24:06;;;;;;;19.87;8.70;;;;;;;3.97;100.00;96041.88;5038625;28;20205;-69
2022/11/28 08:26:34;;;;;;;21.30;9.10;;;;;;;4.01;100.00;96047.63;5039300;28;20201;-70
2022/11/28 08:29:02;;;;;;;17.90;8.20;;;;;;;3.99;100.00;96055.59;5039035;28;20232;-70
2022/11/28 08:31:32;;;;;;;20.00;8.23;;;;;;;4.13;100.00;96052.53;5038846;28;20201;-69
2022/11/28 08:34:01;;;;;;;18.67;7.87;;;;;;;3.99;100.00;96046.94;5038815;28;20209;-70
2022/11/28 08:36:28;;;;;;;19.70;9.30;;;;;;;3.84;100.00;96056.97;5039492;28;20213;-70
2022/11/28 08:38:55;;;;;;;20.03;9.47;;;;;;;3.89;100.00;96049.56;5039620;28;20600;-69
2022/11/28 08:41:23;;;;;;;22.30;8.73;;;;;;;3.81;100.00;96056.47;5039751;28;20221;-70
2022/11/28 08:43:49;;;;;;;19.27;8.57;;;;;;;3.95;100.00;96043.81;5039696;28;20216;-69
2022/11/28 08:46:19;;;;;;;26.27;10.50;;;;;;;4.14;100.00;96048.97;5039907;28;20205;-70
2022/11/28 08:48:48;;;;;;;37.10;15.77;;;;;;;4.12;100.00;96043.03;5039585;28;20225;-70
2022/11/28 08:51:17;;;;;;;27.90;10.63;;;;;;;4.20;100.00;96037.13;5039187;28;20561;-70
2022/11/28 08:53:44;;;;;;;23.17;9.57;;;;;;;4.05;100.00;96041.16;5038476;28;20290;-70
2022/11/28 08:56:11;;;;;;;20.33;8.43;;;;;;;3.95;100.00;96035.97;5040115;28;20220;-70
2022/11/28 08:58:38;;;;;;;19.97;8.77;;;;;;;4.08;100.00;96041.69;5039318;28;20232;-71
2022/11/28 09:01:14;;;;;;;27.83;11.00;;;;;;;4.15;100.00;96042.78;5038775;28;20732;-70
2022/11/28 09:03:40;;;;;;;25.90;10.90;;;;;;;4.18;100.00;96039.06;5038824;28;20212;-71
2022/11/28 09:06:08;;;;;;;24.70;11.50;;;;;;;4.26;100.00;96038.22;5039787;28;20209;-70
2022/11/28 09:08:35;;;;;;;31.83;14.07;;;;;;;4.35;100.00;96037.34;5038893;28;20233;-70
2022/11/28 09:11:01;;;;;;;33.03;12.67;;;;;;;4.27;100.00;96046.84;5038844;28;20209;-70
2022/11/28 09:13:28;;;;;;;22.93;11.13;;;;;;;4.33;100.00;96041.88;5039178;28;20206;-70
2022/11/28 09:15:55;;;;;;;27.73;10.60;;;;;;;4.32;100.00;96039.41;5039299;28;20212;-70
2022/11/28 09:18:21;;;;;;;24.07;11.03;;;;;;;4.24;100.00;96044.53;5038830;28;20213;-70
2022/11/28 09:20:48;;;;;;;21.63;10.13;;;;;;;4.22;100.00;96047.25;5039109;28;20204;-70
2022/11/28 09:23:16;;;;;;;28.97;11.83;;;;;;;4.50;100.00;96037.69;5038293;28;20205;-71
2022/11/28 09:25:42;;;;;;;51.83;15.03;;;;;;;4.23;100.00;96038.47;5038750;28;20205;-71
2022/11/28 09:28:09;;;;;;;52.00;15.20;;;;;;;4.26;100.00;96038.22;5039193;28;20209;-72
2022/11/28 09:30:35;;;;;;;24.97;10.37;;;;;;;4.42;100.00;96037.59;5038410;28;20566;-70
2022/11/28 09:33:02;;;;;;;19.83;8.67;;;;;;;4.30;100.00;96039.56;5037962;28;20202;-71
2022/11/28 09:35:28;;;;;;;21.60;9.80;;;;;;;4.54;100.00;96047.66;5038683;28;20759;-71
2022/11/28 09:37:55;;;;;;;23.63;10.53;;;;;;;4.59;100.00;96044.63;5038755;28;20216;-71
2022/11/28 09:40:31;;;;;;;30.80;10.80;;;;;;;4.83;100.00;96043.13;5038350;28;20736;-71
2022/11/28 09:43:00;;;;;;;23.87;9.20;;;;;;;4.78;100.00;96060.19;5038158;28;20286;-70
2022/11/28 09:45:27;;;;;;;17.57;8.17;;;;;;;4.82;100.00;96051.91;5038622;28;20205;-71
2022/11/28 09:47:57;;;;;;;15.97;7.57;;;;;;;4.61;100.00;96043.53;5037373;28;20197;-70
2022/11/28 09:50:26;;;;;;;18.13;8.60;;;;;;;4.80;100.00;96053.84;5038435;28;20721;-70
2022/11/28 09:52:59;;;;;;;17.17;9.17;;;;;;;4.75;100.00;96050.84;5038120;28;20206;-70
2022/11/28 09:55:33;;;;;;;18.17;8.70;;;;;;;4.66;100.00;96054.34;5038146;28;20212;-71
2022/11/28 09:58:04;;;;;;;18.83;8.50;;;;;;;4.81;100.00;96054.66;5038911;28;20197;-71
2022/11/28 10:00:36;;;;;;;23.80;10.27;;;;;;;4.73;100.00;96050.16;5038168;28;20225;-72
2022/11/28 10:03:24;;;;;;;22.57;9.67;;;;;;;4.73;100.00;96047.56;5037570;28;20209;-71
2022/11/28 10:06:00;;;;;;;23.37;9.73;;;;;;;4.61;100.00;96053.13;5038288;28;20551;-72
2022/11/28 10:08:35;;;;;;;24.50;10.07;;;;;;;4.83;100.00;96059.59;5038705;28;20217;-71
2022/11/28 10:11:14;;;;;;;27.17;11.43;;;;;;;4.81;100.00;96058.09;5037938;28;20218;-72
2022/11/28 10:13:54;;;;;;;20.70;9.40;;;;;;;4.68;100.00;96055.00;5036931;28;20201;-71
2022/11/28 10:16:36;;;;;;;18.30;8.77;;;;;;;4.75;100.00;96050.03;5038697;28;20204;-70
2022/11/28 10:19:08;;;;;;;22.03;9.90;;;;;;;4.99;100.00;96051.94;5038073;28;21160;-70
2022/11/28 10:21:38;;;;;;;21.17;9.53;;;;;;;5.16;100.00;96048.50;5037122;28;20736;-70
2022/11/28 10:24:14;;;;;;;26.60;10.77;;;;;;;5.15;100.00;96049.47;5036851;28;20669;-70
2022/11/28 10:26:47;;;;;;;21.33;9.83;;;;;;;5.28;100.00;96049.09;5034437;28;20835;-70
2022/11/28 10:29:22;;;;;;;29.90;11.37;;;;;;;5.39;100.00;96036.63;5036845;28;20221;-71
2022/11/28 10:31:53;;;;;;;20.17;8.37;;;;;;;5.34;100.00;96044.09;5037223;28;20197;-71
2022/11/28 10:34:26;;;;;;;20.33;8.47;;;;;;;5.34;100.00;96033.66;5036139;28;20201;-71
2022/11/28 10:37:00;;;;;;;22.77;10.53;;;;;;;5.48;100.00;96035.72;5036569;28;20682;-71
2022/11/28 10:39:27;;;;;;;18.33;8.77;;;;;;;5.23;100.00;96030.44;5036645;28;20225;-71
2022/11/28 10:42:12;;;;;;;18.13;7.73;;;;;;;5.38;100.00;96028.97;5035508;28;20701;-71
2022/11/28 10:45:01;;;;;;;18.33;8.83;;;;;;;5.33;100.00;96026.78;5036006;28;20255;-71
2022/11/28 10:47:48;;;;;;;18.77;9.20;;;;;;;5.32;100.00;96025.16;5025674;28;20205;-71
2022/11/28 10:50:24;;;;;;;18.00;7.93;;;;;;;5.42;100.00;96020.66;5037244;28;20587;-71
2022/11/28 10:52:59;;;;;;;22.03;9.13;;;;;;;5.31;100.00;96013.06;5035709;28;20204;-71
2022/11/28 10:55:34;;;;;;;20.87;9.70;;;;;;;5.34;100.00;96017.97;5037283;28;20257;-71
2022/11/28 10:58:12;;;;;;;18.10;9.00;;;;;;;5.46;100.00;96022.03;5037333;28;20653;-71
2022/11/28 11:00:40;;;;;;;24.20;11.27;;;;;;;5.42;100.00;96017.22;5037049;28;20228;-71
2022/11/28 11:03:13;;;;;;;21.50;8.93;;;;;;;5.55;100.00;96021.09;5036790;28;20248;-71
2022/11/28 11:05:40;;;;;;;19.67;8.97;;;;;;;5.49;100.00;96019.09;5037611;28;20201;-70
2022/11/28 11:08:17;;;;;;;23.00;9.77;;;;;;;5.49;100.00;96011.25;5037147;28;20905;-70
2022/11/28 11:10:48;;;;;;;18.77;8.23;;;;;;;5.53;100.00;96004.75;5037103;28;20224;-70
2022/11/28 11:13:19;;;;;;;14.83;7.13;;;;;;;5.52;100.00;96003.09;5036629;28;20247;-70
2022/11/28 11:15:48;;;;;;;20.30;9.83;;;;;;;5.60;100.00;96008.38;5037237;28;20335;-70
2022/11/28 11:18:25;;;;;;;23.17;10.03;;;;;;;5.63;100.00;95997.63;5037465;28;20243;-70
2022/11/28 11:21:06;;;;;;;19.23;7.90;;;;;;;5.62;100.00;95996.78;5037185;28;20211;-70
2022/11/28 11:23:32;;;;;;;20.37;9.27;;;;;;;5.64;100.00;96001.91;5035813;28;20231;-70
2022/11/28 11:25:59;;;;;;;23.90;9.87;;;;;;;5.52;100.00;96000.47;5036974;28;20247;-70
2022/11/28 11:28:33;;;;;;;16.37;8.10;;;;;;;5.57;100.00;95999.03;5038176;28;20208;-70
2022/11/28 11:31:02;;;;;;;19.03;8.80;;;;;;;5.69;100.00;95992.63;5034058;28;20783;-70
2022/11/28 11:33:34;;;;;;;20.20;9.83;;;;;;;5.69;100.00;95990.00;5034730;28;20204;-70
2022/11/28 11:36:03;;;;;;;28.07;9.83;;;;;;;5.72;100.00;95986.25;5035133;28;20972;-70
2022/11/28 11:38:33;;;;;;;22.80;10.10;;;;;;;5.77;100.00;95981.44;5035226;28;20204;-70